Time;durP1;ratioP1;P1;durP2;ratioP2;P2;SDS_P1;SDS_P2;PMS_P1;PMS_P2;Temp;Humidity;BMP_temperature;BMP_pressure;BME280_temperature;BME280_humidity;BME280_pressure;Samples;Min_cycle;Max_cycle;Signal;HPM_P1;HPM_P2
2021/06/26 00:00:17;;;;;;;0.00;0.00;;;;;;;26.43;61.77;98695.53;5091106;28;20569;-72
2021/06/26 00:02:43;;;;;;;0.00;0.00;;;;;;;26.43;62.09;98703.75;5090785;28;20020;-72
2021/06/26 00:05:10;;;;;;;0.00;0.00;;;;;;;26.42;61.77;98709.66;5091300;28;20028;-72
2021/06/26 00:07:36;;;;;;;0.00;0.00;;;;;;;26.40;62.07;98704.53;5091280;28;20479;-72
2021/06/26 00:10:03;;;;;;;0.00;0.00;;;;;;;26.41;61.99;98699.84;5090701;28;20042;-72
2021/06/26 00:12:29;;;;;;;0.00;0.00;;;;;;;26.33;62.50;98696.31;5091012;28;20098;-72
2021/06/26 00:14:54;;;;;;;0.00;0.00;;;;;;;26.26;62.81;98710.81;5090870;28;20040;-72
2021/06/26 00:17:20;;;;;;;0.00;0.00;;;;;;;26.23;63.03;98703.34;5090932;28;20020;-72
2021/06/26 00:19:45;;;;;;;0.00;0.00;;;;;;;26.21;62.90;98694.75;5091013;28;20039;-72
2021/06/26 00:22:11;;;;;;;0.00;0.00;;;;;;;26.19;62.98;98700.59;5090936;28;20048;-72
2021/06/26 00:24:36;;;;;;;0.00;0.00;;;;;;;26.14;62.49;98703.72;5090778;28;20123;-72
2021/06/26 00:27:02;;;;;;;0.00;0.00;;;;;;;26.08;61.33;98697.06;5090460;28;20073;-72
2021/06/26 00:29:27;;;;;;;0.05;0.05;;;;;;;25.97;61.71;98693.50;5090494;28;20030;-72
2021/06/26 00:31:53;;;;;;;0.15;0.08;;;;;;;25.93;61.67;98693.50;5090570;28;20028;-72
2021/06/26 00:34:18;;;;;;;0.10;0.10;;;;;;;25.86;61.98;98686.03;5092828;28;20055;-71
2021/06/26 00:36:44;;;;;;;0.00;0.00;;;;;;;25.84;61.80;98701.28;5094497;28;20016;-72
2021/06/26 00:39:09;;;;;;;0.47;0.35;;;;;;;25.82;61.37;98693.47;5094701;28;20032;-72
2021/06/26 00:41:35;;;;;;;0.10;0.10;;;;;;;25.80;60.92;98693.06;5094715;28;20108;-72
2021/06/26 00:44:01;;;;;;;0.00;0.00;;;;;;;25.77;61.50;98696.59;5094327;28;20024;-72
2021/06/26 00:46:27;;;;;;;0.00;0.00;;;;;;;25.77;61.48;98693.84;5094339;28;20483;-72
2021/06/26 00:48:52;;;;;;;0.10;0.10;;;;;;;25.79;61.57;98696.97;5094324;28;20114;-72
2021/06/26 00:51:18;;;;;;;0.00;0.00;;;;;;;25.82;61.31;98707.16;5094505;28;20031;-72
2021/06/26 00:53:43;;;;;;;0.00;0.00;;;;;;;25.86;61.50;98698.97;5094243;28;20105;-72
2021/06/26 00:56:09;;;;;;;0.00;0.00;;;;;;;25.88;61.35;98685.66;5094055;28;20020;-72
2021/06/26 00:58:35;;;;;;;0.00;0.00;;;;;;;25.92;61.79;98686.44;5094336;28;20535;-72
2021/06/26 01:01:00;;;;;;;0.00;0.00;;;;;;;25.95;61.82;98685.69;5094071;28;20016;-72
2021/06/26 01:03:26;;;;;;;0.00;0.00;;;;;;;25.96;61.47;98679.00;5094291;28;20024;-72
2021/06/26 01:05:51;;;;;;;0.00;0.00;;;;;;;25.96;61.63;98675.50;5093982;28;20111;-72
2021/06/26 01:08:17;;;;;;;0.00;0.00;;;;;;;25.97;61.53;98680.59;5094413;28;20437;-72
2021/06/26 01:10:44;;;;;;;0.00;0.00;;;;;;;25.96;61.83;98670.78;5094102;28;20501;-72
2021/06/26 01:13:10;;;;;;;0.00;0.00;;;;;;;25.98;61.59;98676.66;5093810;28;20483;-72
2021/06/26 01:15:35;;;;;;;0.00;0.00;;;;;;;25.97;61.77;98672.38;5093997;28;20024;-72
2021/06/26 01:18:01;;;;;;;0.00;0.00;;;;;;;25.97;62.37;98672.38;5093656;28;20028;-72
2021/06/26 01:20:27;;;;;;;0.00;0.00;;;;;;;25.95;62.34;98672.00;5093642;28;20024;-72
2021/06/26 01:22:59;;;;;;;0.00;0.00;;;;;;;25.91;62.06;98670.41;5093641;28;20025;-72
2021/06/26 01:25:26;;;;;;;0.00;0.00;;;;;;;25.84;62.01;98682.91;5093833;28;20044;-72
2021/06/26 01:27:54;;;;;;;0.00;0.00;;;;;;;25.78;61.97;98692.69;5093582;28;20098;-72
2021/06/26 01:30:26;;;;;;;0.03;0.03;;;;;;;25.76;61.99;98694.25;5093619;28;20067;-72
2021/06/26 01:32:51;;;;;;;0.00;0.00;;;;;;;25.62;62.30;98693.03;5093326;28;20020;-72
2021/06/26 01:35:17;;;;;;;0.00;0.00;;;;;;;25.56;62.48;98706.31;5093631;28;20038;-72
2021/06/26 01:37:42;;;;;;;0.00;0.00;;;;;;;25.50;62.58;98712.53;5093529;28;20020;-72
2021/06/26 01:40:13;;;;;;;0.00;0.00;;;;;;;25.46;62.58;98706.25;5093602;28;20414;-72
2021/06/26 01:42:39;;;;;;;0.00;0.00;;;;;;;25.42;63.04;98698.03;5093766;28;20034;-72
2021/06/26 01:45:05;;;;;;;0.00;0.00;;;;;;;25.38;63.05;98692.53;5092191;28;20023;-72
2021/06/26 01:47:30;;;;;;;0.00;0.00;;;;;;;25.38;62.92;98681.59;5093378;28;20028;-72
2021/06/26 01:49:56;;;;;;;0.00;0.00;;;;;;;25.37;62.98;98674.53;5093172;28;20035;-72
2021/06/26 01:52:21;;;;;;;0.00;0.00;;;;;;;25.37;63.23;98658.13;5093311;28;20027;-72
2021/06/26 01:54:46;;;;;;;0.20;0.20;;;;;;;25.40;63.09;98662.03;5093124;28;20024;-72
2021/06/26 01:57:12;;;;;;;0.00;0.00;;;;;;;25.41;62.96;98663.63;5093150;28;20552;-72
2021/06/26 01:59:37;;;;;;;0.00;0.00;;;;;;;25.40;62.97;98657.38;5093155;28;20082;-72
2021/06/26 02:02:05;;;;;;;0.00;0.00;;;;;;;25.42;62.74;98665.19;5074622;28;20403;-72
2021/06/26 02:04:31;;;;;;;0.27;0.17;;;;;;;25.42;62.53;98665.19;5093103;28;20035;-72
2021/06/26 02:06:56;;;;;;;0.00;0.00;;;;;;;25.38;62.40;98658.94;5092849;28;20316;-72
2021/06/26 02:09:22;;;;;;;0.00;0.00;;;;;;;25.38;62.78;98648.75;5092967;28;20023;-72
2021/06/26 02:11:47;;;;;;;0.10;0.10;;;;;;;25.34;62.48;98636.19;5092897;28;20485;-72
2021/06/26 02:14:12;;;;;;;0.10;0.10;;;;;;;25.26;62.24;98636.16;5092700;28;20117;-72
2021/06/26 02:16:39;;;;;;;0.05;0.05;;;;;;;25.23;62.37;98647.09;5092800;28;20031;-72
2021/06/26 02:19:04;;;;;;;0.00;0.00;;;;;;;25.15;62.43;98646.28;5092623;28;20031;-72
2021/06/26 02:21:30;;;;;;;0.00;0.00;;;;;;;25.14;62.50;98649.41;5092742;28;20032;-72
2021/06/26 02:23:55;;;;;;;0.00;0.00;;;;;;;25.09;62.41;98647.81;5092487;28;20051;-72
2021/06/26 02:26:21;;;;;;;0.00;0.00;;;;;;;25.04;62.56;98653.66;5092752;28;20074;-71
2021/06/26 02:28:46;;;;;;;0.00;0.00;;;;;;;25.02;62.32;98659.50;5092816;28;20039;-72
2021/06/26 02:31:12;;;;;;;0.00;0.00;;;;;;;24.99;62.30;98663.00;5092058;28;20024;-72
2021/06/26 02:33:37;;;;;;;0.00;0.00;;;;;;;24.95;62.22;98656.75;5092543;28;20032;-73
2021/06/26 02:36:03;;;;;;;0.00;0.00;;;;;;;24.90;61.55;98657.09;5091887;28;20024;-71
2021/06/26 02:38:29;;;;;;;0.00;0.00;;;;;;;24.84;61.86;98653.16;5092119;28;20592;-71
2021/06/26 02:40:54;;;;;;;0.00;0.00;;;;;;;24.77;61.88;98660.13;5092219;28;20024;-71
2021/06/26 02:43:19;;;;;;;0.00;0.00;;;;;;;24.72;61.95;98662.47;5092594;28;20471;-73
2021/06/26 02:45:46;;;;;;;0.00;0.00;;;;;;;24.65;61.84;98668.63;5092283;28;20020;-71
2021/06/26 02:48:12;;;;;;;0.00;0.00;;;;;;;24.60;62.23;98669.75;5091980;28;20062;-71
2021/06/26 02:50:38;;;;;;;0.00;0.00;;;;;;;24.58;62.04;98661.19;5092199;28;20062;-71
2021/06/26 02:53:03;;;;;;;0.00;0.00;;;;;;;24.55;62.02;98661.16;5091976;28;20027;-71
2021/06/26 02:55:29;;;;;;;0.10;0.10;;;;;;;24.53;62.13;98658.00;5092034;28;20028;-71
2021/06/26 02:57:54;;;;;;;0.10;0.10;;;;;;;24.47;61.90;98663.03;5073020;28;20046;-73
2021/06/26 03:00:20;;;;;;;0.00;0.00;;;;;;;24.41;62.42;98687.22;5091984;28;20024;-71
2021/06/26 03:02:46;;;;;;;0.00;0.00;;;;;;;24.30;62.69;98687.13;5091805;28;20106;-73
2021/06/26 03:05:11;;;;;;;0.00;0.00;;;;;;;24.10;63.12;98680.28;5091334;28;20097;-71
2021/06/26 03:07:37;;;;;;;0.00;0.00;;;;;;;23.98;63.67;98686.81;5091893;28;20428;-71
2021/06/26 03:10:03;;;;;;;0.10;0.10;;;;;;;23.89;63.99;98669.91;5091593;28;20035;-73
2021/06/26 03:12:29;;;;;;;0.10;0.10;;;;;;;23.89;64.18;98675.34;5091759;28;20020;-72
2021/06/26 03:14:54;;;;;;;0.00;0.00;;;;;;;23.82;64.62;98687.00;5091592;28;20110;-72
2021/06/26 03:17:20;;;;;;;0.00;0.00;;;;;;;23.78;64.80;98678.78;5091612;28;20028;-71
2021/06/26 03:19:45;;;;;;;0.00;0.00;;;;;;;23.83;64.92;98683.13;5091714;28;20028;-71
2021/06/26 03:22:11;;;;;;;0.20;0.20;;;;;;;23.88;64.96;98677.31;5091397;28;20377;-72
2021/06/26 03:24:36;;;;;;;0.00;0.00;;;;;;;23.95;64.93;98677.41;5091403;28;20051;-71
2021/06/26 03:27:02;;;;;;;0.00;0.00;;;;;;;24.03;64.98;98683.72;5091398;28;20115;-71
2021/06/26 03:29:27;;;;;;;0.00;0.00;;;;;;;24.05;64.30;98678.69;5091039;28;20039;-71
2021/06/26 03:31:52;;;;;;;0.00;0.00;;;;;;;24.13;64.76;98683.06;5091244;28;20045;-71
2021/06/26 03:34:18;;;;;;;0.00;0.00;;;;;;;24.21;64.69;98683.13;5091428;28;20483;-71
2021/06/26 03:36:44;;;;;;;0.00;0.00;;;;;;;24.33;64.50;98677.38;5091331;28;20081;-71
2021/06/26 03:39:10;;;;;;;0.08;0.08;;;;;;;24.55;64.30;98677.56;5091192;28;20079;-71
2021/06/26 03:41:35;;;;;;;0.10;0.10;;;;;;;24.78;63.85;98674.63;5091344;28;20513;-71
2021/06/26 03:44:01;;;;;;;0.00;0.00;;;;;;;25.04;62.90;98679.06;5090726;28;20024;-71
2021/06/26 03:46:28;;;;;;;0.10;0.10;;;;;;;25.35;62.19;98676.88;5091241;28;20031;-71
2021/06/26 03:48:54;;;;;;;0.00;0.00;;;;;;;25.61;61.80;98679.72;5090872;28;20501;-71
2021/06/26 03:51:19;;;;;;;0.05;0.05;;;;;;;25.93;60.90;98674.31;5091131;28;20107;-71
2021/06/26 03:53:46;;;;;;;0.00;0.00;;;;;;;26.27;59.69;98676.75;5091078;28;20501;-71
2021/06/26 03:56:12;;;;;;;0.10;0.10;;;;;;;26.62;58.26;98683.41;5090805;28;20427;-71
2021/06/26 03:58:38;;;;;;;0.00;0.00;;;;;;;26.98;57.25;98688.06;5091078;28;20165;-71
2021/06/26 04:01:03;;;;;;;0.00;0.00;;;;;;;27.34;55.97;98687.94;5090406;28;20095;-71
2021/06/26 04:03:29;;;;;;;0.10;0.10;;;;;;;27.71;55.23;98683.09;5091030;28;20032;-71
2021/06/26 04:05:55;;;;;;;0.00;0.00;;;;;;;28.04;54.37;98683.66;5090876;28;20067;-71
2021/06/26 04:08:20;;;;;;;0.00;0.00;;;;;;;28.41;53.16;98683.03;5091460;28;20047;-71
2021/06/26 04:10:46;;;;;;;0.00;0.00;;;;;;;28.77;52.39;98686.69;5095217;28;20177;-72
2021/06/26 04:13:11;;;;;;;0.20;0.20;;;;;;;29.01;51.13;98688.38;5094910;28;20469;-72
2021/06/26 04:15:36;;;;;;;0.00;0.00;;;;;;;29.28;50.23;98687.69;5095051;28;20019;-71
2021/06/26 04:18:03;;;;;;;0.00;0.00;;;;;;;29.58;49.45;98690.88;5094854;28;20028;-71
2021/06/26 04:20:28;;;;;;;0.00;0.00;;;;;;;29.83;48.80;98687.78;5095321;28;20498;-73
2021/06/26 04:22:54;;;;;;;0.00;0.00;;;;;;;30.04;48.53;98686.72;5094654;28;20111;-71
2021/06/26 04:25:19;;;;;;;0.00;0.00;;;;;;;30.28;48.27;98679.25;5094610;28;20043;-71
2021/06/26 04:27:45;;;;;;;0.00;0.00;;;;;;;30.58;47.06;98674.88;5094637;28;20028;-71
2021/06/26 04:30:13;;;;;;;0.00;0.00;;;;;;;30.88;46.55;98677.88;5093167;28;20043;-71
2021/06/26 04:32:40;;;;;;;0.00;0.00;;;;;;;31.20;46.37;98677.28;5094736;28;20027;-71
2021/06/26 04:35:08;;;;;;;0.20;0.20;;;;;;;31.54;45.74;98678.97;5094584;28;20078;-72
2021/06/26 04:37:34;;;;;;;0.00;0.00;;;;;;;31.82;45.23;98670.47;5094717;28;20111;-71
2021/06/26 04:40:00;;;;;;;0.10;0.10;;;;;;;32.10;44.61;98671.78;5094377;28;20443;-71
2021/06/26 04:42:26;;;;;;;0.00;0.00;;;;;;;32.39;44.08;98673.91;5094428;28;20542;-71
2021/06/26 04:44:51;;;;;;;0.00;0.00;;;;;;;32.65;43.57;98679.56;5094533;28;20138;-73
2021/06/26 04:47:17;;;;;;;0.00;0.00;;;;;;;32.98;43.32;98690.59;5094331;28;20032;-71
2021/06/26 04:49:42;;;;;;;0.00;0.00;;;;;;;33.28;42.89;98686.56;5094469;28;20058;-72
2021/06/26 04:52:09;;;;;;;0.00;0.00;;;;;;;33.48;42.79;98688.41;5094297;28;20027;-71
2021/06/26 04:54:35;;;;;;;0.00;0.00;;;;;;;33.69;42.68;98686.97;5094603;28;20502;-71
2021/06/26 04:57:01;;;;;;;0.00;0.00;;;;;;;33.97;42.23;98684.56;5094066;28;20028;-71
2021/06/26 04:59:26;;;;;;;0.17;0.17;;;;;;;34.26;42.02;98691.97;5094356;28;20086;-71
2021/06/26 05:01:52;;;;;;;0.00;0.00;;;;;;;34.56;41.89;98696.16;5094010;28;20024;-72
2021/06/26 05:04:17;;;;;;;0.00;0.00;;;;;;;34.82;41.80;98701.63;5094023;28;20027;-71
2021/06/26 05:06:43;;;;;;;0.00;0.00;;;;;;;34.79;41.50;98716.44;5093954;28;20039;-71
2021/06/26 05:09:08;;;;;;;0.00;0.00;;;;;;;34.95;41.16;98729.41;5093943;28;20032;-71
2021/06/26 05:11:34;;;;;;;0.00;0.00;;;;;;;35.02;41.84;98736.69;5094068;28;20024;-72
2021/06/26 05:13:59;;;;;;;0.03;0.03;;;;;;;34.83;41.31;98728.19;5093483;28;20032;-72
2021/06/26 05:16:24;;;;;;;0.08;0.08;;;;;;;34.75;41.19;98726.88;5093764;28;20028;-73
2021/06/26 05:18:50;;;;;;;0.00;0.00;;;;;;;34.68;40.13;98724.34;5093683;28;20089;-71
2021/06/26 05:21:15;;;;;;;0.00;0.00;;;;;;;34.58;39.70;98726.25;5093324;28;20066;-72
2021/06/26 05:23:41;;;;;;;0.60;0.57;;;;;;;34.40;39.89;98743.50;5092566;28;20039;-72
2021/06/26 05:26:09;;;;;;;0.45;0.45;;;;;;;34.24;40.42;98738.81;5093599;28;20507;-72
2021/06/26 05:28:35;;;;;;;0.82;0.82;;;;;;;33.89;42.41;98744.28;5093597;28;20020;-73
2021/06/26 05:31:00;;;;;;;0.32;0.32;;;;;;;33.47;43.73;98743.06;5093057;28;20072;-73
2021/06/26 05:33:26;;;;;;;0.30;0.30;;;;;;;33.25;44.61;98737.34;5093726;28;20463;-73
2021/06/26 05:35:51;;;;;;;0.57;0.55;;;;;;;33.02;45.61;98730.81;5093834;28;20033;-72
2021/06/26 05:38:17;;;;;;;0.08;0.08;;;;;;;33.04;46.15;98719.28;5075080;28;20024;-72
2021/06/26 05:40:42;;;;;;;0.10;0.10;;;;;;;33.18;45.99;98718.16;5093481;28;20035;-72
2021/06/26 05:43:07;;;;;;;0.65;0.55;;;;;;;33.33;45.73;98713.75;5093110;28;20020;-72
2021/06/26 05:45:33;;;;;;;0.22;0.22;;;;;;;33.24;45.73;98713.63;5093359;28;20020;-72
2021/06/26 05:47:59;;;;;;;0.40;0.40;;;;;;;33.25;45.96;98725.47;5093636;28;20035;-72
2021/06/26 05:50:24;;;;;;;0.10;0.10;;;;;;;33.03;46.51;98726.84;5092828;28;20047;-72
2021/06/26 05:52:53;;;;;;;0.50;0.50;;;;;;;32.80;46.82;98738.13;5093207;28;20051;-71
2021/06/26 05:55:19;;;;;;;2.55;1.55;;;;;;;32.46;47.07;98736.56;5092570;28;20479;-71
2021/06/26 05:57:45;;;;;;;0.20;0.20;;;;;;;32.35;47.50;98729.31;5093164;28;20050;-72
2021/06/26 06:00:12;;;;;;;0.43;0.43;;;;;;;32.38;47.83;98736.75;5093134;28;20265;-72
2021/06/26 06:02:38;;;;;;;2.08;0.30;;;;;;;32.42;48.21;98736.66;5092752;28;20104;-72
2021/06/26 06:05:04;;;;;;;0.17;0.17;;;;;;;32.62;47.76;98747.66;5092754;28;20032;-72
2021/06/26 06:07:30;;;;;;;0.10;0.10;;;;;;;32.64;46.48;98748.00;5092918;28;20081;-72
2021/06/26 06:09:55;;;;;;;0.30;0.30;;;;;;;32.55;46.59;98745.06;5092548;28;20406;-72
2021/06/26 06:12:20;;;;;;;0.20;0.20;;;;;;;32.29;46.91;98749.63;5092591;28;20020;-71
2021/06/26 06:14:46;;;;;;;1.25;0.88;;;;;;;31.88;46.93;98762.78;5092896;28;20029;-72
2021/06/26 06:17:11;;;;;;;0.63;0.63;;;;;;;31.27;48.43;98778.56;5092426;28;20024;-71
2021/06/26 06:19:37;;;;;;;0.93;0.77;;;;;;;30.70;49.41;98781.13;5092519;28;20023;-71
2021/06/26 06:22:08;;;;;;;0.20;0.20;;;;;;;30.20;50.57;98788.16;5092703;28;20035;-72
2021/06/26 06:24:34;;;;;;;0.77;0.75;;;;;;;29.74;51.92;98800.53;5092250;28;20491;-72
2021/06/26 06:26:59;;;;;;;0.15;0.15;;;;;;;29.21;53.39;98815.22;5092431;28;20028;-71
2021/06/26 06:29:24;;;;;;;0.43;0.43;;;;;;;28.83;54.43;98817.13;5092186;28;20047;-72
2021/06/26 06:31:50;;;;;;;0.35;0.35;;;;;;;28.37;55.66;98802.47;5091871;28;20103;-72
2021/06/26 06:34:15;;;;;;;0.30;0.30;;;;;;;27.86;57.98;98764.25;5092129;28;20024;-72
2021/06/26 06:36:41;;;;;;;2.25;1.00;;;;;;;27.58;59.31;98746.72;5092371;28;20027;-72
2021/06/26 06:39:06;;;;;;;1.33;0.98;;;;;;;27.26;61.16;98749.56;5092089;28;20449;-72
2021/06/26 06:41:32;;;;;;;0.43;0.43;;;;;;;26.86;61.98;98782.53;5092207;28;20505;-72
2021/06/26 06:43:57;;;;;;;0.47;0.47;;;;;;;26.56;64.66;98818.53;5092033;28;20028;-72
2021/06/26 06:46:22;;;;;;;0.38;0.38;;;;;;;26.15;66.71;98841.56;5091916;28;20028;-71
2021/06/26 06:48:48;;;;;;;1.30;0.95;;;;;;;25.69;68.74;98868.28;5091973;28;20479;-73
2021/06/26 06:51:14;;;;;;;1.05;1.02;;;;;;;25.24;71.03;98868.38;5091561;28;20103;-73
2021/06/26 06:53:39;;;;;;;0.50;0.50;;;;;;;24.92;72.20;98896.22;5092101;28;20024;-73
2021/06/26 06:56:05;;;;;;;1.30;1.30;;;;;;;24.56;74.28;98889.59;5091855;28;20027;-71
2021/06/26 06:58:30;;;;;;;4.13;1.85;;;;;;;24.32;75.29;98899.88;5091877;28;20115;-72
2021/06/26 07:00:56;;;;;;;2.67;2.47;;;;;;;24.13;74.99;98903.53;5092010;28;20107;-71
2021/06/26 07:03:21;;;;;;;2.65;1.50;;;;;;;23.94;74.84;98893.56;5091652;28;20058;-73
2021/06/26 07:05:47;;;;;;;0.82;0.82;;;;;;;23.77;76.37;98903.03;5091867;28;20016;-73
2021/06/26 07:08:12;;;;;;;0.57;0.57;;;;;;;23.58;75.65;98923.03;5091339;28;20027;-72
2021/06/26 07:10:37;;;;;;;0.85;0.75;;;;;;;23.44;76.08;98939.97;5091508;28;20107;-72
2021/06/26 07:13:03;;;;;;;0.57;0.57;;;;;;;23.18;75.29;98966.06;5091474;28;20158;-71
2021/06/26 07:15:28;;;;;;;0.22;0.22;;;;;;;22.95;75.38;98965.97;5091445;28;20075;-72
2021/06/26 07:17:54;;;;;;;0.13;0.13;;;;;;;22.79;75.86;98952.44;5091633;28;20077;-72
2021/06/26 07:20:19;;;;;;;0.50;0.50;;;;;;;22.70;75.43;98960.84;5091121;28;20021;-72
2021/06/26 07:22:45;;;;;;;0.15;0.15;;;;;;;22.52;75.12;98953.09;5091866;28;20082;-72
2021/06/26 07:25:11;;;;;;;1.00;1.00;;;;;;;22.44;74.90;98926.84;5091280;28;20491;-71
2021/06/26 07:27:36;;;;;;;1.13;1.05;;;;;;;22.34;75.39;98941.03;5091429;28;20099;-73
2021/06/26 07:30:04;;;;;;;0.73;0.73;;;;;;;22.23;76.13;98935.34;5091042;28;20032;-73
2021/06/26 07:32:29;;;;;;;1.55;0.70;;;;;;;22.10;74.77;98926.50;5091100;28;20102;-72
2021/06/26 07:34:54;;;;;;;0.30;0.30;;;;;;;22.01;75.34;98928.66;5091473;28;20054;-72
2021/06/26 07:37:20;;;;;;;0.10;0.10;;;;;;;21.95;75.37;98943.66;5090993;28;20024;-72
2021/06/26 07:39:45;;;;;;;0.57;0.57;;;;;;;21.88;73.65;98939.66;5091433;28;20027;-72
2021/06/26 07:42:11;;;;;;;1.08;0.45;;;;;;;21.82;73.50;98932.13;5090721;28;20024;-72
2021/06/26 07:44:36;;;;;;;0.10;0.10;;;;;;;21.82;74.32;98940.28;5090416;28;20020;-72
2021/06/26 07:47:02;;;;;;;0.73;0.73;;;;;;;21.76;73.46;98920.72;5091243;28;20071;-72
2021/06/26 07:49:27;;;;;;;0.00;0.00;;;;;;;21.77;74.12;98903.25;5091029;28;20024;-72
2021/06/26 07:51:53;;;;;;;0.90;0.70;;;;;;;21.80;73.40;98912.63;5091250;28;20463;-72
2021/06/26 07:54:18;;;;;;;0.10;0.10;;;;;;;21.83;73.84;98903.75;5090988;28;20541;-72
2021/06/26 07:56:45;;;;;;;0.43;0.43;;;;;;;21.86;73.47;98906.56;5072940;28;20016;-72
2021/06/26 07:59:11;;;;;;;0.35;0.30;;;;;;;21.93;74.16;98910.59;5090932;28;20036;-72
2021/06/26 08:01:37;;;;;;;1.45;0.40;;;;;;;21.96;73.81;98918.03;5091114;28;20081;-72
2021/06/26 08:04:03;;;;;;;0.22;0.22;;;;;;;21.99;73.29;98904.50;5091378;28;20107;-72
2021/06/26 08:06:28;;;;;;;0.30;0.30;;;;;;;22.04;73.22;98898.75;5090534;28;20479;-72
2021/06/26 08:08:54;;;;;;;0.57;0.57;;;;;;;22.10;74.23;98882.16;5091024;28;20139;-72
2021/06/26 08:11:20;;;;;;;0.20;0.20;;;;;;;22.12;72.55;98875.22;5090807;28;20073;-72
2021/06/26 08:13:47;;;;;;;0.43;0.43;;;;;;;22.21;72.78;98875.78;5090942;28;20035;-72
2021/06/26 08:16:12;;;;;;;0.40;0.40;;;;;;;22.28;73.19;98869.69;5090724;28;20020;-72
2021/06/26 08:18:38;;;;;;;0.20;0.20;;;;;;;22.42;72.40;98891.00;5090718;28;20024;-72
2021/06/26 08:21:04;;;;;;;0.00;0.00;;;;;;;22.48;71.70;98897.72;5090935;28;20051;-72
2021/06/26 08:23:29;;;;;;;0.28;0.28;;;;;;;22.58;71.76;98911.94;5090713;28;20031;-72
2021/06/26 08:25:54;;;;;;;0.13;0.13;;;;;;;22.66;71.01;98916.38;5090996;28;20036;-72
2021/06/26 08:28:20;;;;;;;0.03;0.03;;;;;;;22.68;70.75;98912.16;5090527;28;20027;-72
2021/06/26 08:30:45;;;;;;;0.10;0.10;;;;;;;22.77;70.51;98911.91;5090604;28;20020;-72
2021/06/26 08:33:11;;;;;;;0.00;0.00;;;;;;;22.86;70.82;98903.50;5090577;28;20391;-72
2021/06/26 08:35:36;;;;;;;0.10;0.10;;;;;;;22.98;71.42;98902.53;5090811;28;20020;-72
2021/06/26 08:38:02;;;;;;;0.10;0.10;;;;;;;23.05;71.76;98878.13;5090699;28;20035;-72
2021/06/26 08:40:27;;;;;;;0.17;0.17;;;;;;;23.17;72.61;98880.69;5090426;28;20418;-72
2021/06/26 08:42:55;;;;;;;0.30;0.30;;;;;;;23.28;72.52;98877.38;5090447;28;20024;-72
2021/06/26 08:45:21;;;;;;;0.00;0.00;;;;;;;23.38;71.50;98867.78;5090530;28;20256;-73
2021/06/26 08:47:51;;;;;;;0.10;0.10;;;;;;;23.46;71.50;98863.97;5072612;28;20475;-73
2021/06/26 08:50:19;;;;;;;0.10;0.10;;;;;;;23.56;70.36;98859.81;5090169;28;20445;-72
2021/06/26 08:52:45;;;;;;;0.82;0.52;;;;;;;23.69;70.04;98861.19;5090698;28;20020;-73
2021/06/26 08:55:11;;;;;;;0.00;0.00;;;;;;;23.83;70.47;98861.38;5092099;28;20503;-73
2021/06/26 08:57:40;;;;;;;0.15;0.15;;;;;;;23.98;70.68;98875.25;5094343;28;20028;-73
2021/06/26 09:00:10;;;;;;;0.15;0.15;;;;;;;24.12;70.13;98886.38;5094297;28;20092;-73
2021/06/26 09:02:35;;;;;;;0.00;0.00;;;;;;;24.26;68.75;98901.38;5094321;28;20024;-73
2021/06/26 09:05:03;;;;;;;0.10;0.10;;;;;;;24.44;68.98;98904.31;5094197;28;20162;-72
2021/06/26 09:07:34;;;;;;;3.83;1.27;;;;;;;24.58;68.08;98907.22;5094275;28;20071;-73
2021/06/26 09:10:20;;;;;;;0.28;0.28;;;;;;;24.73;67.50;98894.50;5094140;28;20471;-73
2021/06/26 09:12:47;;;;;;;0.10;0.10;;;;;;;24.93;68.12;98888.81;5094002;28;20077;-73
2021/06/26 09:15:25;;;;;;;0.00;0.00;;;;;;;25.13;68.43;98889.38;5093546;28;20491;-73
2021/06/26 09:17:52;;;;;;;0.00;0.00;;;;;;;25.30;67.87;98895.41;5093959;28;20035;-72
2021/06/26 09:20:19;;;;;;;0.00;0.00;;;;;;;25.47;66.71;98896.72;5093682;28;20035;-73
2021/06/26 09:22:49;;;;;;;0.08;0.08;;;;;;;25.61;66.61;98885.06;5093905;28;20028;-72
2021/06/26 09:25:21;;;;;;;0.10;0.10;;;;;;;25.77;64.24;98880.09;5093618;28;20039;-73
2021/06/26 09:27:46;;;;;;;0.10;0.10;;;;;;;25.86;63.89;98866.06;5093548;28;20032;-73
2021/06/26 09:30:12;;;;;;;0.00;0.00;;;;;;;25.95;64.17;98855.53;5093472;28;20111;-73
2021/06/26 09:32:44;;;;;;;0.00;0.00;;;;;;;26.03;63.05;98856.34;5093712;28;20028;-73
2021/06/26 09:35:17;;;;;;;0.20;0.20;;;;;;;26.12;62.06;98850.53;5093561;28;20031;-73
2021/06/26 09:37:43;;;;;;;0.08;0.08;;;;;;;26.17;61.79;98853.69;5093168;28;20107;-73
2021/06/26 09:40:12;;;;;;;0.00;0.00;;;;;;;26.22;62.21;98841.56;5093827;28;20115;-73
2021/06/26 09:42:39;;;;;;;0.00;0.00;;;;;;;26.31;61.55;98833.75;5093524;28;20074;-73
2021/06/26 09:45:06;;;;;;;0.00;0.00;;;;;;;26.37;60.38;98828.69;5093480;28;20023;-72
2021/06/26 09:47:33;;;;;;;0.00;0.00;;;;;;;26.44;60.65;98825.97;5093318;28;20051;-73
2021/06/26 09:50:20;;;;;;;0.08;0.08;;;;;;;26.51;60.38;98827.94;5093461;28;20028;-72
2021/06/26 09:52:52;;;;;;;0.08;0.08;;;;;;;26.60;60.12;98819.31;5093398;28;20168;-73
2021/06/26 09:55:24;;;;;;;0.00;0.00;;;;;;;26.69;59.16;98825.97;5093107;28;20117;-72
2021/06/26 09:57:52;;;;;;;0.00;0.00;;;;;;;26.77;58.04;98820.53;5093151;28;20034;-72
2021/06/26 10:00:20;;;;;;;0.00;0.00;;;;;;;26.87;57.35;98821.72;5093016;28;20028;-73
2021/06/26 10:02:46;;;;;;;0.88;0.82;;;;;;;26.94;56.60;98818.97;5093125;28;20493;-73
2021/06/26 10:05:13;;;;;;;0.00;0.00;;;;;;;27.05;56.54;98813.47;5092884;28;20554;-72
2021/06/26 10:07:40;;;;;;;0.00;0.00;;;;;;;27.18;55.41;98817.41;5092058;28;20024;-73
2021/06/26 10:10:09;;;;;;;0.00;0.00;;;;;;;27.30;54.37;98811.50;5093077;28;20466;-72
2021/06/26 10:12:36;;;;;;;0.20;0.20;;;;;;;27.42;53.73;98812.31;5092743;28;20024;-73
2021/06/26 10:15:02;;;;;;;0.00;0.00;;;;;;;27.48;52.24;98806.00;5092844;28;20098;-75
2021/06/26 10:17:28;;;;;;;0.00;0.00;;;;;;;27.58;50.98;98812.63;5092616;28;20392;-72
2021/06/26 10:19:55;;;;;;;0.10;0.10;;;;;;;27.65;51.33;98806.34;5092667;28;20030;-72
2021/06/26 10:22:21;;;;;;;0.00;0.00;;;;;;;27.75;51.97;98810.25;5092554;28;20099;-72
2021/06/26 10:24:47;;;;;;;0.00;0.00;;;;;;;27.81;49.65;98797.66;5092700;28;20112;-72
2021/06/26 10:27:20;;;;;;;1.05;0.98;;;;;;;27.89;51.40;98801.16;5092469;28;20036;-73
2021/06/26 10:29:46;;;;;;;0.10;0.10;;;;;;;27.92;49.71;98803.88;5092532;28;20032;-72
2021/06/26 10:32:16;;;;;;;0.00;0.00;;;;;;;27.98;49.79;98789.72;5092209;28;20082;-72
2021/06/26 10:34:44;;;;;;;0.10;0.10;;;;;;;28.02;50.69;98790.50;5092578;28;20024;-72
2021/06/26 10:37:17;;;;;;;;;;;;;;;28.06;48.53;98799.53;5092537;28;20028;-72
2021/06/26 10:39:43;;;;;;;0.75;0.22;;;;;;;28.04;48.55;98799.09;5092380;28;19934;-72
2021/06/26 10:42:14;;;;;;;0.00;0.00;;;;;;;28.09;49.21;98791.25;5092434;28;20040;-72
2021/06/26 10:44:49;;;;;;;0.00;0.00;;;;;;;28.15;49.47;98788.88;5092607;28;20467;-72
2021/06/26 10:47:16;;;;;;;0.00;0.00;;;;;;;28.17;48.86;98764.50;5092062;28;20507;-72
2021/06/26 10:49:43;;;;;;;0.00;0.00;;;;;;;28.23;49.71;98773.88;5092226;28;20473;-72
2021/06/26 10:52:21;;;;;;;0.00;0.00;;;;;;;28.26;49.67;98764.09;5092248;28;20035;-72
2021/06/26 10:54:57;;;;;;;0.00;0.00;;;;;;;28.35;48.96;98777.38;5092206;28;20035;-72
2021/06/26 10:57:25;;;;;;;0.30;0.30;;;;;;;28.33;49.32;98761.28;5091771;28;20115;-72
2021/06/26 10:59:55;;;;;;;0.00;0.00;;;;;;;28.39;50.14;98765.16;5092015;28;20154;-72
2021/06/26 11:02:20;;;;;;;0.00;0.00;;;;;;;28.48;50.66;98756.47;5091778;28;20028;-72
2021/06/26 11:04:46;;;;;;;0.00;0.00;;;;;;;28.49;49.48;98744.28;5091737;28;20471;-72
2021/06/26 11:07:12;;;;;;;0.00;0.00;;;;;;;28.56;50.00;98746.16;5091639;28;20110;-72
2021/06/26 11:09:39;;;;;;;0.10;0.10;;;;;;;28.66;49.07;98747.28;5091640;28;20111;-72
2021/06/26 11:12:12;;;;;;;0.00;0.00;;;;;;;28.75;49.88;98753.13;5091922;28;20063;-72
2021/06/26 11:14:51;;;;;;;0.00;0.00;;;;;;;28.84;49.18;98741.66;5091646;28;20024;-72
2021/06/26 11:17:17;;;;;;;0.00;0.00;;;;;;;28.95;48.43;98741.53;5091371;28;20024;-73
2021/06/26 11:19:42;;;;;;;0.00;0.00;;;;;;;29.02;46.10;98731.22;5091652;28;20034;-72
2021/06/26 11:22:08;;;;;;;0.00;0.00;;;;;;;29.06;46.09;98725.69;5090369;28;20517;-72
2021/06/26 11:24:37;;;;;;;0.00;0.00;;;;;;;29.10;45.18;98707.19;5090956;28;20028;-72
2021/06/26 11:27:04;;;;;;;0.10;0.10;;;;;;;29.15;45.40;98703.19;5073481;28;20380;-72
2021/06/26 11:29:36;;;;;;;0.03;0.03;;;;;;;29.22;45.32;98703.09;5090990;28;20024;-72